createdAt,value
2022-09-07T00:00:40.956Z,0
2022-09-07T00:01:47.125Z,0
2022-09-07T00:02:53.278Z,0
2022-09-07T00:03:59.452Z,0
2022-09-07T00:05:05.628Z,0
2022-09-07T00:06:11.785Z,0
2022-09-07T00:07:16.970Z,0
2022-09-07T00:08:23.142Z,0
2022-09-07T00:09:29.314Z,0
2022-09-07T00:10:35.475Z,0
2022-09-07T00:11:41.653Z,0
2022-09-07T00:12:47.826Z,0
2022-09-07T00:13:53.988Z,0
2022-09-07T00:15:00.172Z,0
2022-09-07T00:16:06.337Z,0
2022-09-07T00:17:12.506Z,0
2022-09-07T00:18:18.698Z,0
2022-09-07T00:19:24.858Z,0
2022-09-07T00:20:31.023Z,0
2022-09-07T00:21:36.216Z,0
2022-09-07T00:22:42.385Z,0
2022-09-07T00:23:48.557Z,0
2022-09-07T00:24:54.728Z,0
2022-09-07T00:26:00.909Z,0
2022-09-07T00:27:07.073Z,0
2022-09-07T00:28:13.252Z,0
2022-09-07T00:29:19.427Z,0
2022-09-07T00:30:25.617Z,0
2022-09-07T00:31:31.816Z,0
2022-09-07T00:32:37.945Z,0
2022-09-07T00:33:44.119Z,0
2022-09-07T00:34:50.309Z,0
2022-09-07T00:35:55.490Z,0
2022-09-07T00:37:01.658Z,0
2022-09-07T00:38:07.820Z,0
2022-09-07T00:39:14.004Z,0
2022-09-07T00:40:20.168Z,0
2022-09-07T00:41:26.333Z,0
2022-09-07T00:42:32.501Z,0
2022-09-07T00:43:38.668Z,0
2022-09-07T00:44:44.839Z,0
2022-09-07T00:45:51.013Z,0
2022-09-07T00:46:57.186Z,0
2022-09-07T00:48:03.345Z,0
2022-09-07T00:49:09.528Z,0
2022-09-07T00:50:14.721Z,0
2022-09-07T00:51:20.884Z,0
2022-09-07T00:52:27.063Z,0
2022-09-07T00:53:33.242Z,0
2022-09-07T00:54:39.423Z,0
2022-09-07T00:55:45.608Z,0
2022-09-07T00:56:51.787Z,0
2022-09-07T00:57:57.963Z,0
2022-09-07T00:59:04.149Z,0
2022-09-07T01:00:10.340Z,0
2022-09-07T01:01:16.506Z,0
2022-09-07T01:02:22.706Z,0
2022-09-07T01:03:28.895Z,0
2022-09-07T01:04:35.064Z,0
2022-09-07T01:05:41.246Z,0
2022-09-07T01:06:46.445Z,0
2022-09-07T01:07:52.632Z,0
2022-09-07T01:08:58.817Z,0
2022-09-07T01:10:04.992Z,0
2022-09-07T01:11:11.164Z,0
2022-09-07T01:12:17.347Z,0
2022-09-07T01:13:23.537Z,0
2022-09-07T01:14:29.714Z,0
2022-09-07T01:15:35.906Z,0
2022-09-07T01:16:42.077Z,0
2022-09-07T01:17:48.260Z,0
2022-09-07T01:18:54.446Z,0
2022-09-07T01:20:00.636Z,0
2022-09-07T01:21:05.837Z,0
2022-09-07T01:22:12.006Z,0
2022-09-07T01:23:18.176Z,0
2022-09-07T01:24:24.360Z,0
2022-09-07T01:25:29.555Z,0
2022-09-07T01:26:35.751Z,0
2022-09-07T01:27:41.929Z,0
2022-09-07T01:28:48.113Z,0
2022-09-07T01:29:54.295Z,0
2022-09-07T01:31:00.481Z,0
2022-09-07T01:32:06.666Z,0
2022-09-07T01:33:12.847Z,0
2022-09-07T01:34:19.032Z,0
2022-09-07T01:35:25.223Z,0
2022-09-07T01:36:31.402Z,0
2022-09-07T01:37:37.587Z,0
2022-09-07T01:38:43.779Z,0
2022-09-07T01:39:48.985Z,0
2022-09-07T01:40:55.169Z,0
2022-09-07T01:42:01.352Z,0
2022-09-07T01:43:07.544Z,0
2022-09-07T01:44:13.718Z,0
2022-09-07T01:45:19.892Z,0
2022-09-07T01:46:26.078Z,0
2022-09-07T01:47:32.262Z,0
2022-09-07T01:48:38.444Z,0
2022-09-07T01:49:44.628Z,0
2022-09-07T01:50:50.818Z,0
2022-09-07T01:51:57.004Z,0
2022-09-07T01:53:03.190Z,0
2022-09-07T01:54:08.372Z,0
2022-09-07T01:55:14.556Z,0
2022-09-07T01:56:20.734Z,0
2022-09-07T01:57:26.928Z,0
2022-09-07T01:58:33.100Z,0
2022-09-07T01:59:39.284Z,0
2022-09-07T02:00:45.483Z,0
2022-09-07T02:01:51.668Z,0
2022-09-07T02:02:57.855Z,0
2022-09-07T02:04:04.040Z,0
2022-09-07T02:05:10.231Z,0
2022-09-07T02:06:16.420Z,0
2022-09-07T02:07:22.608Z,0
2022-09-07T02:08:28.804Z,0
2022-09-07T02:09:34.977Z,0
2022-09-07T02:10:41.173Z,0
2022-09-07T02:11:47.355Z,0
2022-09-07T02:12:53.535Z,0
2022-09-07T02:13:58.733Z,0
2022-09-07T02:15:04.908Z,0
2022-09-07T02:16:11.098Z,0
2022-09-07T02:17:17.291Z,0
2022-09-07T02:18:23.479Z,0
2022-09-07T02:19:29.655Z,0
2022-09-07T02:20:35.838Z,0
2022-09-07T02:21:42.016Z,0
2022-09-07T02:22:48.198Z,0
2022-09-07T02:23:54.379Z,0
2022-09-07T02:25:00.548Z,0
2022-09-07T02:26:06.761Z,0
2022-09-07T02:27:12.925Z,0
2022-09-07T02:28:18.132Z,0
2022-09-07T02:29:24.303Z,0
2022-09-07T02:30:30.481Z,0
2022-09-07T02:31:36.663Z,0
2022-09-07T02:32:42.858Z,0
2022-09-07T02:33:49.046Z,0
2022-09-07T02:34:55.223Z,0
2022-09-07T02:36:01.417Z,0
2022-09-07T02:37:07.594Z,0
2022-09-07T02:38:13.777Z,0
2022-09-07T02:39:19.964Z,0
2022-09-07T02:40:26.148Z,0
2022-09-07T02:41:32.346Z,0
2022-09-07T02:42:37.533Z,0
2022-09-07T02:43:43.730Z,0
2022-09-07T02:44:49.915Z,0
2022-09-07T02:45:56.100Z,0
2022-09-07T02:47:02.278Z,0
2022-09-07T02:48:08.461Z,0
2022-09-07T02:49:14.658Z,0
2022-09-07T02:50:20.840Z,0
2022-09-07T02:51:27.054Z,0
2022-09-07T02:52:33.230Z,0
2022-09-07T02:53:39.421Z,0
2022-09-07T02:54:45.608Z,0
2022-09-07T02:55:51.812Z,0
2022-09-07T02:56:56.997Z,0
2022-09-07T02:58:03.194Z,0
2022-09-07T02:59:09.388Z,0
2022-09-07T03:00:15.567Z,0
2022-09-07T03:01:21.776Z,0
2022-09-07T03:02:27.961Z,0
2022-09-07T03:03:34.143Z,0
2022-09-07T03:04:40.328Z,0
2022-09-07T03:05:46.517Z,0
2022-09-07T03:06:52.711Z,0
2022-09-07T03:07:58.913Z,0
2022-09-07T03:09:05.089Z,0
2022-09-07T03:10:11.276Z,0
2022-09-07T03:11:16.464Z,0
2022-09-07T03:12:22.656Z,0
2022-09-07T03:13:28.849Z,0
2022-09-07T03:14:35.038Z,0
2022-09-07T03:15:41.217Z,0
2022-09-07T03:16:47.398Z,0
2022-09-07T03:17:53.591Z,0
2022-09-07T03:18:59.786Z,0
2022-09-07T03:20:05.977Z,0
2022-09-07T03:21:12.163Z,0
2022-09-07T03:22:18.375Z,0
2022-09-07T03:23:24.554Z,0
2022-09-07T03:24:30.736Z,0
2022-09-07T03:25:35.940Z,0
2022-09-07T03:26:42.126Z,0
2022-09-07T03:27:48.311Z,0
2022-09-07T03:28:54.509Z,0
2022-09-07T03:30:00.707Z,0
2022-09-07T03:31:06.890Z,0
2022-09-07T03:32:13.092Z,0
2022-09-07T03:33:19.296Z,0
2022-09-07T03:34:25.481Z,0
2022-09-07T03:35:31.666Z,0
2022-09-07T03:36:37.862Z,0
2022-09-07T03:37:44.047Z,0
2022-09-07T03:38:50.242Z,0
2022-09-07T03:39:56.437Z,0
2022-09-07T03:41:01.636Z,0
2022-09-07T03:42:07.821Z,0
2022-09-07T03:43:14.021Z,0
2022-09-07T03:44:20.207Z,0
2022-09-07T03:45:26.397Z,0
2022-09-07T03:46:32.590Z,0
2022-09-07T03:47:38.779Z,0
2022-09-07T03:48:44.971Z,0
2022-09-07T03:49:51.158Z,4
2022-09-07T03:50:57.357Z,0
2022-09-07T03:52:03.547Z,0
2022-09-07T03:53:09.733Z,0
2022-09-07T03:54:15.928Z,0
2022-09-07T03:55:21.132Z,0
2022-09-07T03:56:27.321Z,1
2022-09-07T03:57:33.515Z,0
2022-09-07T03:58:39.695Z,1
2022-09-07T03:59:45.892Z,1
2022-09-07T04:00:52.086Z,1
2022-09-07T04:01:58.273Z,3
2022-09-07T04:03:04.467Z,3
2022-09-07T04:04:10.652Z,6
2022-09-07T04:05:16.840Z,15
2022-09-07T04:06:23.033Z,11
2022-09-07T04:07:29.234Z,9
2022-09-07T04:08:35.426Z,6
2022-09-07T04:09:41.611Z,10
2022-09-07T04:10:46.815Z,31
2022-09-07T04:11:53.015Z,16
2022-09-07T04:12:59.211Z,19
2022-09-07T04:14:05.401Z,21
2022-09-07T04:15:11.604Z,28
2022-09-07T04:16:17.799Z,35
2022-09-07T04:17:24.003Z,43
2022-09-07T04:18:30.184Z,59
2022-09-07T04:19:36.381Z,76
2022-09-07T04:20:42.558Z,95
2022-09-07T04:21:48.773Z,109
2022-09-07T04:22:54.952Z,113
2022-09-07T04:24:01.146Z,119
2022-09-07T04:25:06.350Z,141
2022-09-07T04:26:12.540Z,167
2022-09-07T04:27:18.727Z,189
2022-09-07T04:28:24.920Z,203
2022-09-07T04:29:31.115Z,219
2022-09-07T04:30:37.305Z,223
2022-09-07T04:31:43.495Z,245
2022-09-07T04:32:49.705Z,254
2022-09-07T04:33:55.872Z,325
2022-09-07T04:35:02.066Z,378
2022-09-07T04:36:08.256Z,466
2022-09-07T04:37:14.434Z,527
2022-09-07T04:38:20.622Z,518
2022-09-07T04:39:25.834Z,505
2022-09-07T04:40:32.010Z,521
2022-09-07T04:41:38.201Z,565
2022-09-07T04:42:44.383Z,618
2022-09-07T04:43:50.570Z,699
2022-09-07T04:44:56.753Z,792
2022-09-07T04:46:02.944Z,853
2022-09-07T04:47:09.130Z,940
2022-09-07T04:48:15.318Z,1059
2022-09-07T04:49:21.502Z,1163
2022-09-07T04:50:27.694Z,1302
2022-09-07T04:51:33.881Z,1301
2022-09-07T04:52:40.064Z,1318
2022-09-07T04:53:45.275Z,1495
2022-09-07T04:54:51.457Z,1573
2022-09-07T04:55:57.633Z,1585
2022-09-07T04:57:03.826Z,1845
2022-09-07T04:58:09.999Z,2171
2022-09-07T04:59:16.176Z,2328
2022-09-07T05:00:22.360Z,2512
2022-09-07T05:01:28.545Z,2646
2022-09-07T05:02:34.728Z,2807
2022-09-07T05:03:40.899Z,2934
2022-09-07T05:04:47.077Z,3101
2022-09-07T05:05:53.262Z,3395
2022-09-07T05:06:58.465Z,3736
2022-09-07T05:08:04.627Z,4010
2022-09-07T05:09:10.813Z,4291
2022-09-07T05:10:16.997Z,4400
2022-09-07T05:11:23.177Z,4383
2022-09-07T05:12:29.346Z,3278
2022-09-07T05:13:35.526Z,3042
2022-09-07T05:14:41.698Z,4062
2022-09-07T05:15:47.878Z,4894
2022-09-07T05:16:54.047Z,15829
2022-09-07T05:18:00.221Z,13479
2022-09-07T05:19:06.388Z,6746
2022-09-07T05:20:12.557Z,5932
2022-09-07T05:21:17.742Z,6039
2022-09-07T05:22:23.902Z,5941
2022-09-07T05:23:30.072Z,5756
2022-09-07T05:24:36.246Z,6642
2022-09-07T05:25:42.409Z,7083
2022-09-07T05:26:48.570Z,7352
2022-09-07T05:27:54.739Z,9491
2022-09-07T05:29:00.909Z,12131
2022-09-07T05:30:07.070Z,7559
2022-09-07T05:31:13.233Z,6218
2022-09-07T05:32:19.400Z,6069
2022-09-07T05:33:25.553Z,9730
2022-09-07T05:34:31.706Z,13564
2022-09-07T05:35:36.868Z,25577
2022-09-07T05:36:43.016Z,32460
2022-09-07T05:37:49.172Z,36794
2022-09-07T05:38:55.322Z,28372
2022-09-07T05:40:01.453Z,16182
2022-09-07T05:41:07.580Z,36029
2022-09-07T05:42:13.716Z,41134
2022-09-07T05:43:19.834Z,40418
2022-09-07T05:44:25.950Z,46616
2022-09-07T05:45:32.065Z,24313
2022-09-07T05:46:38.193Z,30663
2022-09-07T05:47:44.309Z,37396
2022-09-07T05:48:50.407Z,30419
2022-09-07T05:49:56.515Z,20358
2022-09-07T05:51:02.624Z,11156
2022-09-07T05:52:08.741Z,8281
2022-09-07T05:53:14.856Z,8170
2022-09-07T05:54:20.965Z,11053
2022-09-07T05:55:27.076Z,12611
2022-09-07T05:56:33.200Z,8975
2022-09-07T05:57:39.324Z,11475
2022-09-07T05:58:44.463Z,10711
2022-09-07T05:59:50.588Z,10080
2022-09-07T06:00:56.713Z,10193
2022-09-07T06:02:02.841Z,8611
2022-09-07T06:03:08.971Z,6789
2022-09-07T06:04:15.101Z,17415
2022-09-07T06:05:21.225Z,15699
2022-09-07T06:06:27.370Z,17810
2022-09-07T06:07:33.502Z,16273
2022-09-07T06:08:39.641Z,13708
2022-09-07T06:09:45.782Z,13413
2022-09-07T06:10:51.912Z,13204
2022-09-07T06:11:58.051Z,12686
2022-09-07T06:13:03.205Z,12722
2022-09-07T06:14:09.352Z,10480
2022-09-07T06:15:15.488Z,13112
2022-09-07T06:16:21.623Z,11820
2022-09-07T06:17:27.758Z,11619
2022-09-07T06:18:33.899Z,44217
2022-09-07T06:19:40.026Z,61893
2022-09-07T06:20:46.159Z,35483
2022-09-07T06:21:52.288Z,24807
2022-09-07T06:22:58.412Z,30662
2022-09-07T06:24:04.535Z,47962
2022-09-07T06:25:10.664Z,38947
2022-09-07T06:26:16.778Z,49580
2022-09-07T06:27:22.893Z,46980
2022-09-07T06:28:28.993Z,19663
2022-09-07T06:29:35.105Z,18181
2022-09-07T06:30:41.203Z,15083
2022-09-07T06:31:47.310Z,42314
2022-09-07T06:32:53.395Z,22142
2022-09-07T06:33:59.486Z,21904
2022-09-07T06:35:05.569Z,22040
2022-09-07T06:36:11.656Z,13021
2022-09-07T06:37:17.773Z,53532
2022-09-07T06:38:23.849Z,39592
2022-09-07T06:39:29.891Z,48180
2022-09-07T06:40:35.961Z,41353
2022-09-07T06:41:42.044Z,17229
2022-09-07T06:42:48.108Z,56007
2022-09-07T06:43:54.176Z,18767
2022-09-07T06:45:00.222Z,20247
2022-09-07T06:46:06.278Z,20073
2022-09-07T06:47:12.329Z,21220
2022-09-07T06:48:18.382Z,24407
2022-09-07T06:49:24.434Z,22624
2022-09-07T06:50:30.491Z,15433
2022-09-07T06:51:36.536Z,53118
2022-09-07T06:52:42.589Z,42489
2022-09-07T06:53:48.709Z,20644
2022-09-07T06:54:54.821Z,28080
2022-09-07T06:56:00.931Z,23546
2022-09-07T06:57:07.044Z,23379
2022-09-07T06:58:13.154Z,22679
2022-09-07T06:59:19.272Z,20559
2022-09-07T07:00:25.379Z,16455
2022-09-07T07:01:31.492Z,62161
2022-09-07T07:02:37.596Z,1102
2022-09-07T07:03:43.703Z,39979
2022-09-07T07:04:49.815Z,19060
2022-09-07T07:05:55.917Z,19025
2022-09-07T07:07:02.025Z,17622
2022-09-07T07:08:08.262Z,19004
2022-09-07T07:09:13.443Z,21646
2022-09-07T07:10:19.470Z,20983
2022-09-07T07:11:25.499Z,20387
2022-09-07T07:13:37.558Z,24878
2022-09-07T07:14:43.559Z,13200
2022-09-07T07:15:49.598Z,43473
2022-09-07T07:16:55.606Z,22638
2022-09-07T07:18:01.640Z,25152
2022-09-07T07:19:07.646Z,27817
2022-09-07T07:20:13.659Z,25938
2022-09-07T07:21:19.677Z,13026
2022-09-07T07:22:25.676Z,2927
2022-09-07T07:23:31.698Z,40744
2022-09-07T07:24:37.701Z,26382
2022-09-07T07:25:43.716Z,48741
2022-09-07T07:26:49.748Z,25841
2022-09-07T07:27:55.740Z,2927
2022-09-07T07:29:01.739Z,33378
2022-09-07T07:30:07.778Z,39834
2022-09-07T07:31:13.775Z,64885
2022-09-07T07:32:19.785Z,43209
2022-09-07T07:33:25.793Z,23345
2022-09-07T07:34:31.808Z,23868
2022-09-07T07:35:37.829Z,17272
2022-09-07T07:36:43.941Z,18487
2022-09-07T07:37:50.028Z,62315
2022-09-07T07:38:56.133Z,61716
2022-09-07T07:40:02.254Z,34238
2022-09-07T07:41:08.327Z,52467
2022-09-07T07:42:14.421Z,32032
2022-09-07T07:43:20.586Z,29843
2022-09-07T07:44:26.633Z,28317
2022-09-07T07:45:32.736Z,20001
2022-09-07T07:46:38.855Z,27626
2022-09-07T07:47:44.978Z,34948
2022-09-07T07:48:51.080Z,35715
2022-09-07T07:49:57.195Z,25035
2022-09-07T07:51:03.432Z,25267
2022-09-07T07:52:08.634Z,26533
2022-09-07T07:53:14.681Z,26421
2022-09-07T07:54:20.718Z,33370
2022-09-07T07:55:26.765Z,26741
2022-09-07T07:56:32.832Z,26132
2022-09-07T07:57:38.855Z,23276
2022-09-07T07:58:44.896Z,22152
2022-09-07T07:59:50.971Z,21251
2022-09-07T08:00:56.993Z,20674
2022-09-07T08:02:03.051Z,19684
2022-09-07T08:03:09.095Z,18536
2022-09-07T08:04:15.146Z,17664
2022-09-07T08:05:21.205Z,17163
2022-09-07T08:06:27.271Z,16488
2022-09-07T08:07:33.355Z,15724
2022-09-07T08:08:39.376Z,15413
2022-09-07T08:09:45.442Z,14842
2022-09-07T08:10:51.519Z,14307
2022-09-07T08:11:57.579Z,13643
2022-09-07T08:13:03.634Z,12978
2022-09-07T08:14:09.688Z,12411
2022-09-07T08:15:15.751Z,11912
2022-09-07T08:16:21.823Z,11277
2022-09-07T08:17:27.887Z,10768
2022-09-07T08:18:33.950Z,10815
2022-09-07T08:19:40.111Z,10825
2022-09-07T08:20:46.239Z,11232
2022-09-07T08:21:52.380Z,11820
2022-09-07T08:22:58.539Z,12669
2022-09-07T08:24:04.678Z,13419
2022-09-07T08:25:10.835Z,13950
2022-09-07T08:26:16.972Z,14518
2022-09-07T08:27:23.130Z,14303
2022-09-07T08:28:29.314Z,14070
2022-09-07T08:29:35.434Z,13987
2022-09-07T08:30:41.581Z,14034
2022-09-07T08:31:47.729Z,13649
2022-09-07T08:32:53.880Z,13579
2022-09-07T08:34:00.154Z,13537
2022-09-07T08:35:05.376Z,13181
2022-09-07T08:36:11.471Z,13089
2022-09-07T08:37:17.525Z,13162
2022-09-07T08:38:23.603Z,12603
2022-09-07T08:39:29.668Z,11747
2022-09-07T08:40:35.735Z,10970
2022-09-07T08:41:41.819Z,10336
2022-09-07T08:42:47.885Z,9788
2022-09-07T08:43:53.965Z,9333
2022-09-07T08:45:00.135Z,8889
2022-09-07T08:46:06.185Z,8562
2022-09-07T08:47:12.201Z,8248
2022-09-07T08:48:18.333Z,7896
2022-09-07T08:49:24.378Z,7661
2022-09-07T08:50:30.453Z,7463
2022-09-07T08:51:36.531Z,7284
2022-09-07T08:52:42.623Z,7152
2022-09-07T08:53:48.707Z,7102
2022-09-07T08:54:54.793Z,7078
2022-09-07T08:56:00.895Z,7068
2022-09-07T08:57:06.982Z,6954
2022-09-07T08:58:13.081Z,6812
2022-09-07T08:59:19.158Z,6792
2022-09-07T09:00:25.251Z,6646
2022-09-07T09:01:31.344Z,6913
2022-09-07T09:02:37.510Z,8392
2022-09-07T09:03:43.759Z,8616
2022-09-07T09:04:49.931Z,8787
2022-09-07T09:05:56.127Z,8886
2022-09-07T09:07:02.216Z,9081
2022-09-07T09:08:08.348Z,8810
2022-09-07T09:09:14.516Z,8530
2022-09-07T09:10:20.680Z,8655
2022-09-07T09:11:26.893Z,8882
2022-09-07T09:12:33.012Z,9408
2022-09-07T09:13:39.186Z,9112
2022-09-07T09:14:45.387Z,8984
2022-09-07T09:15:51.530Z,8890
2022-09-07T09:16:57.807Z,8836
2022-09-07T09:18:03.075Z,8711
2022-09-07T09:19:09.174Z,8474
2022-09-07T09:20:15.258Z,8227
2022-09-07T09:21:21.339Z,7876
2022-09-07T09:22:27.444Z,7742
2022-09-07T09:23:33.553Z,7828
2022-09-07T09:24:39.647Z,7991
2022-09-07T09:25:45.711Z,7949
2022-09-07T09:26:51.797Z,8567
2022-09-07T09:27:57.915Z,9903
2022-09-07T09:29:03.971Z,10088
2022-09-07T09:30:10.069Z,10389
2022-09-07T09:31:16.142Z,10378
2022-09-07T09:32:22.237Z,10877
2022-09-07T09:33:28.322Z,10583
2022-09-07T09:34:34.448Z,13114
2022-09-07T09:35:40.503Z,12601
2022-09-07T09:36:46.593Z,12261
2022-09-07T09:37:52.670Z,11864
2022-09-07T09:38:58.781Z,11560
2022-09-07T09:40:04.864Z,11151
2022-09-07T09:41:10.995Z,10788
2022-09-07T09:42:17.061Z,10537
2022-09-07T09:43:23.146Z,10224
2022-09-07T09:44:29.249Z,9937
2022-09-07T09:45:35.414Z,9753
2022-09-07T09:46:41.577Z,9604
2022-09-07T09:47:47.751Z,9538
2022-09-07T09:48:53.917Z,9889
2022-09-07T09:50:00.116Z,10185
2022-09-07T09:51:06.264Z,10226
2022-09-07T09:52:12.421Z,11148
2022-09-07T09:53:18.611Z,12607
2022-09-07T09:54:24.779Z,13737
2022-09-07T09:55:30.935Z,13367
2022-09-07T09:56:37.111Z,14528
2022-09-07T09:57:43.273Z,15204
2022-09-07T09:58:49.449Z,15631
2022-09-07T09:59:55.731Z,15742
2022-09-07T10:01:00.971Z,15723
2022-09-07T10:02:07.074Z,24906
2022-09-07T10:03:13.129Z,21394
2022-09-07T10:04:19.253Z,21714
2022-09-07T10:05:25.281Z,20821
2022-09-07T10:06:31.395Z,20179
2022-09-07T10:07:37.428Z,18713
2022-09-07T10:08:43.532Z,17906
2022-09-07T10:09:49.625Z,17032
2022-09-07T10:10:55.621Z,15577
2022-09-07T10:12:01.683Z,16945
2022-09-07T10:13:07.749Z,16032
2022-09-07T10:14:13.803Z,15550
2022-09-07T10:15:19.881Z,18008
2022-09-07T10:16:25.940Z,17668
2022-09-07T10:17:32.012Z,21990
2022-09-07T10:18:38.059Z,27080
2022-09-07T10:19:44.149Z,27364
2022-09-07T10:20:50.205Z,23553
2022-09-07T10:21:56.231Z,22881
2022-09-07T10:23:02.339Z,21011
2022-09-07T10:24:08.341Z,27411
2022-09-07T10:25:14.434Z,22748
2022-09-07T10:26:20.467Z,23249
2022-09-07T10:27:26.498Z,21668
2022-09-07T10:28:32.648Z,20325
2022-09-07T10:29:38.769Z,20285
2022-09-07T10:30:44.916Z,19624
2022-09-07T10:31:51.040Z,19394
2022-09-07T10:32:57.208Z,18024
2022-09-07T10:34:03.303Z,17044
2022-09-07T10:35:09.430Z,15936
2022-09-07T10:36:15.629Z,14860
2022-09-07T10:37:21.707Z,14049
2022-09-07T10:38:27.835Z,13689
2022-09-07T10:39:33.956Z,13888
2022-09-07T10:40:40.099Z,13905
2022-09-07T10:41:46.231Z,13648
2022-09-07T10:42:52.491Z,13329
2022-09-07T10:43:57.739Z,13263
2022-09-07T10:45:03.750Z,12912
2022-09-07T10:46:09.819Z,12741
2022-09-07T10:47:15.889Z,12638
2022-09-07T10:48:21.969Z,12646
2022-09-07T10:49:27.987Z,12590
2022-09-07T10:50:34.056Z,12555
2022-09-07T10:51:40.122Z,12471
2022-09-07T10:52:46.177Z,12461
2022-09-07T10:53:52.264Z,12531
2022-09-07T10:54:58.302Z,12323
2022-09-07T10:56:04.390Z,11184
2022-09-07T10:57:10.467Z,15641
2022-09-07T10:58:16.484Z,21235
2022-09-07T10:59:22.585Z,11501
2022-09-07T11:00:28.637Z,27444
2022-09-07T11:01:34.639Z,18085
2022-09-07T11:02:40.685Z,17208
2022-09-07T11:03:46.748Z,15545
2022-09-07T11:04:52.801Z,14097
2022-09-07T11:05:58.861Z,10422
2022-09-07T11:07:04.912Z,19356
2022-09-07T11:08:10.964Z,12648
2022-09-07T11:09:17.013Z,15438
2022-09-07T11:10:23.067Z,16151
2022-09-07T11:11:29.179Z,19000
2022-09-07T11:12:35.307Z,13192
2022-09-07T11:13:41.423Z,16647
2022-09-07T11:14:47.575Z,18208
2022-09-07T11:15:53.683Z,13318
2022-09-07T11:16:59.810Z,23925
2022-09-07T11:18:05.920Z,20220
2022-09-07T11:19:12.044Z,20526
2022-09-07T11:20:18.174Z,18343
2022-09-07T11:21:24.297Z,17119
2022-09-07T11:22:30.422Z,16104
2022-09-07T11:23:36.555Z,14334
2022-09-07T11:24:42.660Z,13768
2022-09-07T11:25:48.912Z,11088
2022-09-07T11:26:54.100Z,24973
2022-09-07T11:28:00.184Z,16551
2022-09-07T11:29:06.191Z,16895
2022-09-07T11:30:12.243Z,24135
2022-09-07T11:31:18.289Z,19418
2022-09-07T11:32:24.352Z,18466
2022-09-07T11:33:30.419Z,17711
2022-09-07T11:34:36.456Z,16866
2022-09-07T11:35:42.457Z,16292
2022-09-07T11:36:48.499Z,15414
2022-09-07T11:37:54.558Z,12903
2022-09-07T11:39:00.633Z,9679
2022-09-07T11:40:06.723Z,10917
2022-09-07T11:41:12.723Z,15318
2022-09-07T11:42:18.728Z,17454
2022-09-07T11:43:24.757Z,26834
2022-09-07T11:44:30.804Z,15469
2022-09-07T11:45:36.885Z,24023
2022-09-07T11:46:42.875Z,12555
2022-09-07T11:47:48.914Z,25034
2022-09-07T11:48:54.992Z,16689
2022-09-07T11:50:00.984Z,15481
2022-09-07T11:51:07.015Z,15702
2022-09-07T11:52:13.130Z,12321
2022-09-07T11:53:19.116Z,20427
2022-09-07T11:54:25.202Z,11324
2022-09-07T11:55:31.310Z,13215
2022-09-07T11:56:37.446Z,14873
2022-09-07T11:57:43.552Z,17352
2022-09-07T11:58:49.641Z,15381
2022-09-07T11:59:55.770Z,12214
2022-09-07T12:01:01.860Z,10187
2022-09-07T12:02:07.973Z,14931
2022-09-07T12:03:14.091Z,10507
2022-09-07T12:04:20.204Z,12357
2022-09-07T12:05:26.333Z,12935
2022-09-07T12:06:32.439Z,13655
2022-09-07T12:07:38.542Z,13455
2022-09-07T12:08:44.807Z,14365
2022-09-07T12:09:51.025Z,10344
2022-09-07T12:10:57.276Z,12771
2022-09-07T12:12:03.495Z,11887
2022-09-07T12:13:08.692Z,15117
2022-09-07T12:14:14.728Z,9326
2022-09-07T12:15:20.763Z,12222
2022-09-07T12:16:26.809Z,12066
2022-09-07T12:17:32.856Z,11849
2022-09-07T12:18:38.870Z,11832
2022-09-07T12:19:44.888Z,11718
2022-09-07T12:20:50.985Z,11515
2022-09-07T12:21:57.011Z,11665
2022-09-07T12:23:02.989Z,11374
2022-09-07T12:24:09.024Z,11553
2022-09-07T12:25:15.045Z,10966
2022-09-07T12:26:21.121Z,11049
2022-09-07T12:27:27.101Z,10717
2022-09-07T12:28:33.136Z,10251
2022-09-07T12:29:39.185Z,10704
2022-09-07T12:30:45.205Z,10785
2022-09-07T12:31:51.206Z,10835
2022-09-07T12:32:57.236Z,10648
2022-09-07T12:34:03.265Z,10683
2022-09-07T12:35:09.296Z,10646
2022-09-07T12:36:15.327Z,10113
2022-09-07T12:37:21.360Z,10435
2022-09-07T12:38:27.382Z,10168
2022-09-07T12:39:33.384Z,9844
2022-09-07T12:40:39.475Z,10042
2022-09-07T12:41:45.569Z,9913
2022-09-07T12:42:51.680Z,10200
2022-09-07T12:43:57.778Z,10182
2022-09-07T12:45:03.869Z,10280
2022-09-07T12:46:09.964Z,9764
2022-09-07T12:47:16.085Z,9676
2022-09-07T12:48:22.197Z,10026
2022-09-07T12:49:28.255Z,10285
2022-09-07T12:50:34.325Z,10050
2022-09-07T12:51:40.467Z,10381
2022-09-07T12:52:46.556Z,10619
2022-09-07T12:53:52.637Z,10818
2022-09-07T12:54:58.813Z,10572
2022-09-07T12:56:05.054Z,10525
2022-09-07T12:57:11.243Z,10346
2022-09-07T12:58:17.496Z,10083
2022-09-07T12:59:23.711Z,9383
2022-09-07T13:00:29.907Z,9383
2022-09-07T13:01:36.080Z,10189
2022-09-07T13:02:42.284Z,10636
2022-09-07T13:03:48.524Z,10647
2022-09-07T13:04:54.727Z,10270
2022-09-07T13:06:00.896Z,10014
2022-09-07T13:07:07.128Z,10130
2022-09-07T13:08:13.354Z,10561
2022-09-07T13:11:10.202Z,10144
2022-09-07T13:12:15.545Z,10207
2022-09-07T13:13:21.538Z,10276
2022-09-07T13:14:27.547Z,10244
2022-09-07T13:15:33.544Z,10165
2022-09-07T13:16:39.539Z,9756
2022-09-07T13:17:45.555Z,9964
2022-09-07T13:18:51.540Z,10288
2022-09-07T13:19:57.622Z,9847
2022-09-07T13:21:03.582Z,9601
2022-09-07T13:22:09.569Z,9321
2022-09-07T13:23:15.523Z,9615
2022-09-07T13:24:21.588Z,9470
2022-09-07T13:25:27.517Z,9726
2022-09-07T13:26:33.514Z,9553
2022-09-07T13:27:39.505Z,9615
2022-09-07T13:28:45.555Z,9678
2022-09-07T13:29:51.510Z,9323
2022-09-07T13:30:57.504Z,9550
2022-09-07T13:32:03.498Z,9979
2022-09-07T13:33:09.502Z,9157
2022-09-07T13:34:15.540Z,9571
2022-09-07T13:35:21.482Z,9713
2022-09-07T13:36:27.470Z,9259
2022-09-07T13:37:33.488Z,9545
2022-09-07T13:38:39.481Z,9426
2022-09-07T13:39:45.546Z,9471
2022-09-07T13:40:51.616Z,9349
2022-09-07T13:41:57.700Z,9516
2022-09-07T13:43:03.734Z,9605
2022-09-07T13:44:09.805Z,10240
2022-09-07T13:45:15.898Z,8278
2022-09-07T13:46:21.944Z,8606
2022-09-07T13:47:28.017Z,9402
2022-09-07T13:48:34.085Z,9230
2022-09-07T13:49:40.195Z,9200
2022-09-07T13:50:46.224Z,9219
2022-09-07T13:51:52.300Z,9154
2022-09-07T13:52:58.364Z,9178
2022-09-07T13:54:04.565Z,9190
2022-09-07T13:55:10.717Z,9185
2022-09-07T13:56:16.950Z,9089
2022-09-07T13:57:23.101Z,9069
2022-09-07T13:58:28.246Z,9773
2022-09-07T13:59:34.298Z,8279
2022-09-07T14:00:40.217Z,8932
2022-09-07T14:01:46.207Z,8960
2022-09-07T14:02:52.204Z,8955
2022-09-07T14:03:58.188Z,8927
2022-09-07T14:05:04.163Z,8974
2022-09-07T14:06:10.156Z,8903
2022-09-07T14:07:16.159Z,8906
2022-09-07T14:08:22.122Z,8824
2022-09-07T14:09:28.124Z,8830
2022-09-07T14:10:34.125Z,8755
2022-09-07T14:11:40.085Z,8785
2022-09-07T14:12:46.059Z,8789
2022-09-07T14:13:52.043Z,8788
2022-09-07T14:14:58.020Z,8714
2022-09-07T14:16:04.022Z,8701
2022-09-07T14:17:10.006Z,8723
2022-09-07T14:18:15.986Z,8720
2022-09-07T14:19:22.025Z,8696
2022-09-07T14:20:27.950Z,8700
2022-09-07T14:21:33.936Z,8627
2022-09-07T14:22:39.912Z,8592
2022-09-07T14:23:45.935Z,8661
2022-09-07T14:24:51.880Z,8616
2022-09-07T14:25:57.932Z,8315
2022-09-07T14:27:03.983Z,8276
2022-09-07T14:28:10.050Z,8230
2022-09-07T14:29:16.096Z,9770
2022-09-07T14:30:22.156Z,2033
2022-09-07T14:31:28.219Z,6946
2022-09-07T14:32:34.284Z,10787
2022-09-07T14:33:40.366Z,7724
2022-09-07T14:34:46.397Z,9043
2022-09-07T14:35:52.475Z,5500
2022-09-07T14:36:58.508Z,2487
2022-09-07T14:38:04.621Z,8634
2022-09-07T14:39:10.689Z,8547
2022-09-07T14:40:16.814Z,8470
2022-09-07T14:41:23.048Z,8271
2022-09-07T14:42:29.226Z,8352
2022-09-07T14:43:35.379Z,8538
2022-09-07T14:44:41.573Z,10808
2022-09-07T14:45:47.742Z,8203
2022-09-07T14:46:53.928Z,8988
2022-09-07T14:48:00.139Z,3105
2022-09-07T14:49:06.318Z,8894
2022-09-07T14:50:12.507Z,6029
2022-09-07T14:51:18.720Z,5751
2022-09-07T14:52:24.930Z,5496
2022-09-07T14:53:31.370Z,5310
2022-09-07T14:56:27.935Z,5206
2022-09-07T14:57:33.296Z,5040